Time;durP1;ratioP1;P1;durP2;ratioP2;P2;SDS_P1;SDS_P2;PMS_P1;PMS_P2;Temp;Humidity;BMP_temperature;BMP_pressure;BME280_temperature;BME280_humidity;BME280_pressure;Samples;Min_cycle;Max_cycle;Signal;HPM_P1;HPM_P2
2022/05/23 00:02:18;;;;;;;1.60;1.20;;;;;;;13.70;38.08;99735.27;117385;1186;22159;-49
2022/05/23 00:04:47;;;;;;;2.60;1.20;;;;;;;13.67;38.08;99743.27;117331;1186;24288;-49
2022/05/23 00:07:29;;;;;;;2.10;0.90;;;;;;;13.64;38.32;99745.69;117308;1186;23438;-56
2022/05/23 00:09:58;;;;;;;3.50;1.20;;;;;;;13.60;38.32;99741.23;117259;1186;22170;-50
2022/05/23 00:12:26;;;;;;;2.50;1.40;;;;;;;13.59;38.30;99738.11;117573;1184;21849;-52
2022/05/23 00:14:57;;;;;;;;;;;;;;;13.58;38.47;99737.09;117299;1186;22093;-50
2022/05/23 00:17:27;;;;;;;3.10;1.20;;;;;;;13.57;38.47;99737.64;117304;1186;21859;-49
2022/05/23 00:19:55;;;;;;;3.80;1.20;;;;;;;13.56;38.39;99736.45;117372;1186;23445;-49
2022/05/23 00:22:24;;;;;;;2.50;1.20;;;;;;;13.55;38.41;99738.23;117324;1186;23542;-56
2022/05/23 00:24:52;;;;;;;2.50;1.20;;;;;;;13.53;38.45;99741.83;117340;1186;23442;-56
2022/05/23 00:27:27;;;;;;;2.10;1.40;;;;;;;13.53;38.59;99747.27;117366;1185;23809;-56
2022/05/23 00:29:55;;;;;;;1.40;1.00;;;;;;;13.52;38.62;99747.85;117351;1185;22617;-49
2022/05/23 00:35:20;;;;;;;3.90;1.30;;;;;;;13.43;38.54;99747.80;117436;1184;23830;-49
2022/05/23 00:37:53;;;;;;;2.20;1.00;;;;;;;13.32;38.62;99748.50;117355;1185;23538;-49
2022/05/23 00:40:30;;;;;;;1.90;1.20;;;;;;;13.22;38.61;99748.49;117442;1185;21938;-57
2022/05/23 00:43:15;;;;;;;1.60;1.00;;;;;;;13.10;38.63;99747.11;117368;1184;24156;-49
2022/05/23 00:45:55;;;;;;;2.40;1.10;;;;;;;13.01;38.62;99749.36;117379;1185;24267;-57
2022/05/23 00:48:25;;;;;;;1.80;1.10;;;;;;;12.95;38.72;99752.20;117422;1182;23701;-49
2022/05/23 00:50:59;;;;;;;4.90;1.60;;;;;;;12.89;38.76;99750.79;117392;1186;21849;-49
2022/05/23 00:53:35;;;;;;;2.70;1.20;;;;;;;12.87;38.88;99754.73;117421;1185;22920;-49
2022/05/23 00:56:05;;;;;;;2.20;1.30;;;;;;;12.84;38.86;99756.58;117390;1182;22936;-49
2022/05/23 00:58:39;;;;;;;2.70;0.80;;;;;;;12.82;38.88;99763.67;117367;1186;21863;-49
2022/05/23 01:01:11;;;;;;;4.30;1.40;;;;;;;12.78;38.76;99764.14;117352;1185;21836;-57
2022/05/23 01:03:41;;;;;;;2.40;1.20;;;;;;;12.74;38.96;99760.23;117374;1185;23449;-49
2022/05/23 01:06:10;;;;;;;2.40;1.20;;;;;;;12.68;38.97;99756.89;117502;1184;21837;-56
2022/05/23 01:08:39;;;;;;;4.40;1.20;;;;;;;12.63;39.13;99751.23;117430;1186;24702;-49
2022/05/23 01:11:08;;;;;;;3.30;1.40;;;;;;;12.60;39.19;99750.45;117403;1188;21872;-56
2022/05/23 01:13:37;;;;;;;2.30;1.50;;;;;;;12.58;39.18;99749.29;117271;1186;21884;-57
2022/05/23 01:16:05;;;;;;;3.40;1.50;;;;;;;12.57;39.35;99748.79;117547;1185;23540;-49
2022/05/23 01:18:34;;;;;;;3.00;1.50;;;;;;;12.56;39.37;99751.79;117417;1183;22316;-49
2022/05/23 01:21:03;;;;;;;2.70;1.70;;;;;;;12.55;39.37;99749.55;117452;1185;23465;-49
2022/05/23 01:23:35;;;;;;;2.20;1.30;;;;;;;12.54;39.37;99751.69;117347;1186;21849;-49
2022/05/23 01:26:04;;;;;;;4.50;1.70;;;;;;;12.54;39.47;99747.48;117495;1185;23525;-57
2022/05/23 01:28:39;;;;;;;2.40;1.20;;;;;;;12.53;39.56;99747.84;117408;1185;22899;-49
2022/05/23 01:31:09;;;;;;;4.20;1.70;;;;;;;12.54;39.57;99743.78;117390;1185;21960;-56
2022/05/23 01:33:38;;;;;;;3.50;1.70;;;;;;;12.55;39.74;99740.61;117515;1186;22985;-49
2022/05/23 01:36:11;;;;;;;2.70;1.30;;;;;;;12.55;39.73;99743.05;117456;1185;23709;-56
2022/05/23 01:38:40;;;;;;;5.20;1.40;;;;;;;12.57;39.81;99739.46;117384;1185;23447;-56
2022/05/23 01:41:09;;;;;;;4.70;1.60;;;;;;;12.58;39.94;99742.25;117367;1185;21859;-49
2022/05/23 01:43:38;;;;;;;1.90;1.30;;;;;;;12.58;39.83;99748.04;117529;1186;23527;-57
2022/05/23 01:46:06;;;;;;;3.60;2.00;;;;;;;12.58;39.94;99748.94;117372;1186;21915;-49
2022/05/23 01:48:35;;;;;;;9.40;1.50;;;;;;;12.54;39.94;99749.59;117345;1186;24602;-49
2022/05/23 01:51:03;;;;;;;2.20;1.40;;;;;;;12.50;39.76;99755.84;117468;1184;23563;-50
2022/05/23 01:53:32;;;;;;;5.70;1.60;;;;;;;12.50;40.07;99757.80;117410;1185;21852;-49
2022/05/23 01:56:05;;;;;;;4.00;1.60;;;;;;;12.48;40.06;99753.98;117267;1186;24235;-56
2022/05/23 02:01:21;;;;;;;4.10;1.70;;;;;;;12.47;40.19;99753.46;117340;1186;23458;-49
2022/05/23 02:03:50;;;;;;;4.80;1.70;;;;;;;12.47;40.15;99752.96;117347;1185;23573;-49
2022/05/23 02:06:19;;;;;;;2.10;1.30;;;;;;;12.48;40.37;99758.20;117403;1188;21835;-49
2022/05/23 02:08:47;;;;;;;3.90;1.40;;;;;;;12.48;40.26;99757.84;117402;1185;21869;-49
2022/05/23 02:11:17;;;;;;;3.00;1.80;;;;;;;12.49;40.47;99755.70;117293;1186;24159;-56
2022/05/23 02:13:46;;;;;;;5.10;1.40;;;;;;;12.49;40.43;99755.88;117364;1185;23810;-57
2022/05/23 02:16:23;;;;;;;2.60;1.30;;;;;;;12.48;40.48;99758.38;117311;1185;24262;-57
2022/05/23 02:18:53;;;;;;;4.00;1.50;;;;;;;12.46;40.64;99754.39;117407;1182;21900;-49
2022/05/23 02:21:21;;;;;;;2.10;1.40;;;;;;;12.43;40.40;99755.86;117482;1186;22982;-49
2022/05/23 02:23:50;;;;;;;4.20;1.40;;;;;;;12.39;40.47;99755.31;117374;1185;23699;-49
2022/05/23 02:26:18;;;;;;;2.60;1.50;;;;;;;12.34;40.63;99753.33;117439;1185;21857;-56
2022/05/23 02:28:46;;;;;;;4.50;1.40;;;;;;;12.34;40.55;99753.67;117345;1185;23540;-49
2022/05/23 02:31:15;;;;;;;4.50;1.70;;;;;;;12.32;40.72;99758.15;117285;1184;23583;-56
2022/05/23 02:33:44;;;;;;;2.60;1.70;;;;;;;12.29;40.64;99758.05;117381;1185;22807;-56
2022/05/23 02:36:12;;;;;;;2.50;1.40;;;;;;;12.27;40.76;99761.11;117365;1185;22543;-57
2022/05/23 02:38:40;;;;;;;6.90;1.70;;;;;;;12.21;40.74;99758.10;117464;1186;23009;-57
2022/05/23 02:41:13;;;;;;;3.10;1.70;;;;;;;12.16;40.81;99757.71;117348;1185;24012;-57
2022/05/23 02:43:42;;;;;;;4.60;1.70;;;;;;;12.10;40.81;99757.38;117436;1185;23544;-57
2022/05/23 02:46:13;;;;;;;3.40;1.60;;;;;;;12.09;40.90;99761.10;117424;1185;23455;-57
2022/05/23 02:48:47;;;;;;;4.20;1.60;;;;;;;12.06;40.84;99760.12;117387;1185;23647;-56
2022/05/23 02:51:15;;;;;;;2.90;1.70;;;;;;;12.07;41.01;99761.50;117381;1185;22912;-56
2022/05/23 02:53:43;;;;;;;3.40;1.80;;;;;;;12.10;41.09;99762.99;117341;1185;22015;-57
2022/05/23 02:56:12;;;;;;;3.90;2.20;;;;;;;12.13;41.29;99765.19;117456;1186;23564;-57
2022/05/23 02:58:41;;;;;;;3.10;2.00;;;;;;;12.15;41.35;99763.55;117257;1186;23535;-49
2022/05/23 03:01:10;;;;;;;4.00;1.90;;;;;;;12.18;41.38;99764.50;117897;1186;23538;-56
2022/05/23 03:03:39;;;;;;;4.00;2.10;;;;;;;12.19;41.52;99759.56;117927;1185;22918;-49
2022/05/23 03:06:08;;;;;;;3.30;1.60;;;;;;;12.20;41.43;99757.61;117146;1186;23541;-56
2022/05/23 03:08:37;;;;;;;3.70;2.50;;;;;;;12.20;41.47;99761.64;117341;1186;23554;-57
2022/05/23 03:11:06;;;;;;;4.40;2.50;;;;;;;12.24;41.60;99762.77;117345;1186;21863;-57
2022/05/23 03:13:35;;;;;;;4.40;2.60;;;;;;;12.29;41.65;99763.16;117389;1185;24239;-49
2022/05/23 03:16:08;;;;;;;6.60;2.50;;;;;;;12.33;41.72;99762.69;117448;1185;22935;-57
2022/05/23 03:18:37;;;;;;;6.20;2.40;;;;;;;12.42;41.86;99762.95;117369;1186;22623;-49
2022/05/23 03:21:08;;;;;;;8.00;2.40;;;;;;;12.51;41.82;99765.15;117350;1184;23633;-49
2022/05/23 03:29:14;;;;;;;5.70;2.60;;;;;;;12.88;42.11;99773.34;117340;1185;23554;-57
2022/05/23 03:31:43;;;;;;;4.60;2.10;;;;;;;12.99;42.18;99765.10;117385;1185;22914;-49
2022/05/23 03:34:11;;;;;;;4.50;2.20;;;;;;;13.11;42.22;99766.81;117410;1184;22975;-50
2022/05/23 03:36:39;;;;;;;4.20;2.10;;;;;;;13.20;42.25;99764.21;117203;1186;21895;-49
2022/05/23 03:39:07;;;;;;;5.00;2.60;;;;;;;13.33;42.34;99767.69;117383;1186;22930;-56
2022/05/23 03:41:38;;;;;;;5.60;2.40;;;;;;;13.44;42.37;99766.99;117273;1186;23544;-49
2022/05/23 03:44:07;;;;;;;4.60;2.50;;;;;;;13.57;42.34;99764.77;117361;1185;23540;-49
2022/05/23 03:46:37;;;;;;;5.50;2.40;;;;;;;13.65;42.41;99765.39;117387;1185;22979;-49
2022/05/23 03:49:08;;;;;;;4.60;2.30;;;;;;;13.78;42.40;99768.13;117359;1185;21850;-56
2022/05/23 03:51:37;;;;;;;4.80;2.70;;;;;;;13.91;42.44;99771.20;117345;1186;21854;-49
2022/05/23 03:54:06;;;;;;;5.60;2.70;;;;;;;14.03;42.50;99769.54;117414;1185;21921;-57
2022/05/23 03:56:35;;;;;;;9.00;2.80;;;;;;;14.12;42.50;99770.24;117381;1185;21858;-50
2022/05/23 03:59:04;;;;;;;5.60;2.20;;;;;;;14.20;42.50;99769.62;117363;1185;24159;-50
2022/05/23 04:01:33;;;;;;;4.60;2.50;;;;;;;14.29;42.53;99771.94;117337;1186;24158;-49
2022/05/23 04:04:01;;;;;;;4.20;2.60;;;;;;;14.38;42.50;99765.75;117356;1185;23461;-54
2022/05/23 04:06:30;;;;;;;4.90;2.30;;;;;;;14.48;42.56;99765.40;117411;1184;23538;-49
2022/05/23 04:08:59;;;;;;;5.80;3.10;;;;;;;14.55;42.52;99767.07;117401;1184;22951;-49
2022/05/23 04:11:27;;;;;;;8.20;2.70;;;;;;;14.62;42.41;99768.04;117454;1184;23554;-57
2022/05/23 04:13:57;;;;;;;;;;;;;;;14.68;42.33;99769.02;117399;1183;21915;-50
2022/05/23 04:16:29;;;;;;;6.50;2.20;;;;;;;14.76;42.41;99767.72;117433;1185;21914;-50
2022/05/23 04:18:58;;;;;;;4.90;2.30;;;;;;;14.81;42.39;99769.09;117364;1183;22910;-56
2022/05/23 04:21:26;;;;;;;3.60;2.50;;;;;;;14.84;42.35;99767.73;117482;1187;21851;-50
2022/05/23 04:23:55;;;;;;;6.40;2.40;;;;;;;14.88;42.21;99765.45;117398;1184;24148;-50
2022/05/23 04:26:23;;;;;;;7.40;3.30;;;;;;;14.92;42.23;99765.85;117419;1185;23689;-56
2022/05/23 04:28:51;;;;;;;6.10;2.40;;;;;;;14.97;42.21;99770.39;117521;1185;23545;-49
2022/05/23 04:31:20;;;;;;;3.10;2.20;;;;;;;15.04;42.33;99768.02;117412;1185;22058;-56
2022/05/23 04:36:36;;;;;;;5.70;2.50;;;;;;;15.19;42.40;99769.36;117310;1186;24162;-50
2022/05/23 04:39:04;;;;;;;5.10;2.40;;;;;;;15.25;42.37;99770.13;117255;1186;23468;-50
2022/05/23 04:41:35;;;;;;;4.90;2.60;;;;;;;15.32;42.27;99771.28;117232;1186;23441;-56
2022/05/23 04:44:06;;;;;;;5.20;2.50;;;;;;;15.39;42.25;99775.05;117168;1186;23577;-56
2022/05/23 04:46:35;;;;;;;7.10;3.60;;;;;;;15.43;42.23;99778.43;117255;1185;22608;-57
2022/05/23 04:51:53;;;;;;;5.10;2.10;;;;;;;15.48;42.02;99782.45;117301;1186;22835;-56
2022/05/23 04:54:22;;;;;;;6.00;2.20;;;;;;;15.48;42.12;99783.17;117164;1184;22918;-51
2022/05/23 04:56:50;;;;;;;6.30;2.60;;;;;;;15.48;42.15;99780.52;117219;1185;23577;-52
2022/05/23 04:59:19;;;;;;;5.10;2.50;;;;;;;15.48;42.07;99785.10;117304;1185;21893;-56
2022/05/23 05:01:55;;;;;;;4.20;2.10;;;;;;;15.45;42.04;99782.56;117231;1185;21893;-57
2022/05/23 05:04:24;;;;;;;4.20;2.40;;;;;;;15.45;42.07;99789.66;117256;1186;21846;-57
2022/05/23 05:06:53;;;;;;;5.90;2.70;;;;;;;15.46;42.00;99788.39;117252;1185;22919;-57
2022/05/23 05:09:23;;;;;;;;;;;;;;;15.48;42.00;99789.20;117250;1182;21912;-50
2022/05/23 05:11:51;;;;;;;6.00;2.20;;;;;;;15.50;42.04;99789.82;117258;1185;23569;-50
2022/05/23 05:14:20;;;;;;;7.70;2.50;;;;;;;15.55;42.12;99787.50;117324;1186;23567;-50
2022/05/23 05:16:50;;;;;;;5.20;2.30;;;;;;;15.59;42.17;99789.42;117298;1186;21914;-56
2022/05/23 05:19:19;;;;;;;6.20;2.30;;;;;;;15.64;42.12;99788.02;117187;1185;23547;-50
2022/05/23 05:21:47;;;;;;;6.20;2.10;;;;;;;15.68;42.16;99785.51;117267;1185;22646;-55
2022/05/23 05:24:17;;;;;;;9.90;3.00;;;;;;;15.80;42.36;99787.13;117307;1186;23552;-49
2022/05/23 05:26:45;;;;;;;6.90;2.50;;;;;;;15.95;42.41;99789.34;117139;1186;21854;-50
2022/05/23 05:29:14;;;;;;;12.10;2.60;;;;;;;16.08;42.25;99789.83;117102;1187;23547;-50
2022/05/23 05:31:48;;;;;;;11.40;2.30;;;;;;;16.21;42.33;99790.66;117107;1187;23755;-51
2022/05/23 05:34:23;;;;;;;7.50;2.70;;;;;;;16.33;42.25;99788.35;117298;1186;21864;-50
2022/05/23 05:36:54;;;;;;;6.50;2.20;;;;;;;16.43;42.24;99785.78;117281;1186;22783;-56
2022/05/23 05:39:23;;;;;;;4.40;2.00;;;;;;;16.52;42.18;99783.43;117248;1185;22617;-51
2022/05/23 05:42:09;;;;;;;7.40;2.00;;;;;;;16.58;42.16;99786.86;117144;1185;23563;-51
2022/05/23 05:44:40;;;;;;;7.70;1.70;;;;;;;16.55;41.94;99784.52;117296;1185;22889;-57
2022/05/23 05:47:10;;;;;;;7.40;2.20;;;;;;;16.50;41.96;99787.93;117325;1185;22904;-50
2022/05/23 05:49:55;;;;;;;15.60;2.60;;;;;;;16.46;41.93;99788.66;117445;1186;23548;-57
2022/05/23 05:52:25;;;;;;;5.10;2.00;;;;;;;16.42;41.82;99790.95;117279;1185;21846;-50
2022/05/23 05:54:53;;;;;;;4.20;1.70;;;;;;;16.35;41.74;99792.00;117320;1186;22712;-50
2022/05/23 05:57:22;;;;;;;3.90;1.90;;;;;;;16.30;41.88;99794.15;117363;1185;23557;-50
2022/05/23 05:59:52;;;;;;;4.40;1.80;;;;;;;16.26;41.81;99792.23;117073;1185;22905;-50
2022/05/23 06:02:21;;;;;;;4.60;1.70;;;;;;;16.25;41.89;99793.15;117278;1185;22104;-51
2022/05/23 06:04:50;;;;;;;3.80;1.90;;;;;;;16.27;41.91;99795.35;117255;1186;23534;-57
2022/05/23 06:13:08;;;;;;;4.10;2.00;;;;;;;16.43;42.03;99791.08;117319;1185;21846;-55
2022/05/23 06:15:36;;;;;;;3.90;1.70;;;;;;;16.51;42.11;99787.89;117470;1185;22975;-50
2022/05/23 06:18:05;;;;;;;7.10;1.70;;;;;;;16.58;42.16;99788.30;117516;1185;21846;-49
2022/05/23 06:20:34;;;;;;;3.90;1.70;;;;;;;16.67;42.20;99785.71;117854;1180;21861;-52
2022/05/23 06:23:03;;;;;;;5.70;2.20;;;;;;;16.77;42.21;99784.92;117441;1184;23528;-50
2022/05/23 06:25:31;;;;;;;4.80;1.70;;;;;;;16.86;42.31;99784.13;117521;1184;22896;-50
2022/05/23 06:28:00;;;;;;;4.30;2.00;;;;;;;16.98;42.29;99775.95;117389;1185;22838;-56
2022/05/23 06:30:28;;;;;;;4.00;1.50;;;;;;;17.09;42.38;99779.88;117393;1187;21894;-56
2022/05/23 06:32:57;;;;;;;3.10;1.50;;;;;;;17.22;42.39;99776.96;117333;1185;21849;-56
2022/05/23 06:35:25;;;;;;;2.60;1.50;;;;;;;17.34;42.37;99776.88;117286;1185;22970;-56
2022/05/23 06:37:54;;;;;;;8.10;2.30;;;;;;;17.47;42.39;99772.88;117287;1186;23545;-50
2022/05/23 06:40:22;;;;;;;5.10;2.20;;;;;;;17.55;42.40;99768.20;117441;1184;23540;-50
2022/05/23 06:42:51;;;;;;;5.20;2.00;;;;;;;17.64;42.36;99768.29;117290;1185;22789;-50
2022/05/23 06:45:20;;;;;;;4.40;2.60;;;;;;;17.72;42.31;99769.98;117287;1185;22624;-55
2022/05/23 06:47:48;;;;;;;5.60;2.50;;;;;;;17.77;42.35;99767.08;117305;1185;23553;-56
2022/05/23 06:50:17;;;;;;;4.30;2.00;;;;;;;17.81;42.14;99768.65;117121;1186;21909;-57
2022/05/23 06:52:45;;;;;;;4.60;2.30;;;;;;;17.85;42.14;99764.73;117345;1186;23566;-52
2022/05/23 06:55:14;;;;;;;4.20;1.80;;;;;;;17.92;42.12;99764.89;117305;1185;22914;-57
2022/05/23 06:57:43;;;;;;;5.20;2.00;;;;;;;17.97;42.19;99764.27;117258;1185;21912;-50
2022/05/23 07:00:12;;;;;;;3.30;1.60;;;;;;;18.05;42.20;99766.91;117307;1185;21928;-57
2022/05/23 07:02:40;;;;;;;3.10;1.50;;;;;;;18.11;42.08;99768.36;117104;1186;21969;-56
2022/05/23 07:13:35;;;;;;;2.50;1.60;;;;;;;18.44;42.01;99767.48;117363;1185;22620;-57
2022/05/23 07:16:05;;;;;;;5.80;1.70;;;;;;;18.47;41.91;99766.27;117381;1185;23547;-57
2022/05/23 07:18:33;;;;;;;2.80;1.60;;;;;;;18.53;41.96;99767.16;117445;1184;23566;-57
2022/05/23 07:21:03;;;;;;;3.60;1.50;;;;;;;18.65;42.01;99762.39;117306;1184;21851;-56
2022/05/23 07:23:31;;;;;;;4.00;1.70;;;;;;;18.84;42.13;99761.19;117307;1188;21853;-50
2022/05/23 07:26:00;;;;;;;2.70;1.30;;;;;;;19.06;42.16;99757.67;117426;1186;21909;-57
2022/05/23 07:28:28;;;;;;;4.20;1.80;;;;;;;19.30;42.12;99757.33;117475;1184;23567;-51
2022/05/23 07:30:56;;;;;;;1.80;0.90;;;;;;;19.56;42.13;99749.96;117341;1186;23564;-50
2022/05/23 07:33:24;;;;;;;2.60;1.40;;;;;;;19.84;42.10;99752.00;117469;1184;23545;-57
2022/05/23 07:36:03;;;;;;;3.00;1.20;;;;;;;20.10;42.09;99752.43;117556;1185;22911;-58
2022/05/23 07:38:32;;;;;;;4.20;1.30;;;;;;;20.29;41.98;99748.73;117377;1188;23005;-50
2022/05/23 07:41:00;;;;;;;2.40;1.40;;;;;;;20.47;41.74;99752.28;117265;1185;23547;-57
2022/05/23 07:43:29;;;;;;;4.00;1.60;;;;;;;20.55;41.65;99751.76;117361;1181;24155;-51
2022/05/23 07:45:57;;;;;;;3.70;1.90;;;;;;;20.61;41.58;99751.88;117481;1186;21858;-56
2022/05/23 07:48:27;;;;;;;5.80;1.40;;;;;;;20.66;41.47;99750.67;117531;1179;22898;-53
2022/05/23 07:50:55;;;;;;;5.20;1.60;;;;;;;20.71;41.39;99754.30;117535;1186;22954;-57
2022/05/23 08:01:47;;;;;;;4.30;1.40;;;;;;;20.62;40.84;99752.54;117101;1182;23563;-51
2022/05/23 08:04:16;;;;;;;6.30;1.90;;;;;;;20.63;40.77;99755.50;117484;1184;21855;-56
2022/05/23 08:06:46;;;;;;;4.00;1.50;;;;;;;20.62;40.71;99757.50;117361;1186;23560;-51
2022/05/23 08:09:15;;;;;;;4.40;1.60;;;;;;;20.63;40.60;99756.76;117414;1186;21847;-51
2022/05/23 08:11:46;;;;;;;4.50;2.00;;;;;;;20.57;40.45;99756.09;117351;1185;21850;-57
2022/05/23 08:14:15;;;;;;;2.50;1.40;;;;;;;20.42;40.34;99760.42;117352;1186;22915;-51
2022/05/23 08:16:44;;;;;;;3.70;1.70;;;;;;;20.31;40.34;99758.04;117368;1185;23560;-51
2022/05/23 08:19:13;;;;;;;6.40;2.60;;;;;;;20.24;40.39;99757.25;117392;1185;22309;-56
2022/05/23 08:21:50;;;;;;;4.50;1.30;;;;;;;20.25;40.52;99755.77;117363;1185;23689;-55
2022/05/23 08:24:18;;;;;;;3.80;1.00;;;;;;;20.31;40.45;99753.59;117294;1185;23532;-56
2022/05/23 08:26:46;;;;;;;4.30;1.40;;;;;;;20.39;40.55;99751.31;117298;1186;21857;-56
2022/05/23 08:29:15;;;;;;;9.70;1.70;;;;;;;20.55;40.67;99750.67;117213;1185;21853;-50
2022/05/23 08:31:47;;;;;;;2.30;0.90;;;;;;;20.76;40.63;99747.91;117303;1185;23928;-51
2022/05/23 08:34:16;;;;;;;4.00;1.70;;;;;;;20.94;40.67;99747.98;117303;1185;23439;-51
2022/05/23 08:36:45;;;;;;;3.30;1.20;;;;;;;21.09;40.57;99748.33;117302;1189;21964;-57
2022/05/23 08:39:14;;;;;;;3.00;1.70;;;;;;;21.12;40.41;99744.52;117409;1185;23636;-57
2022/05/23 08:41:44;;;;;;;4.40;1.40;;;;;;;21.12;40.22;99746.67;117343;1185;22818;-57
2022/05/23 08:44:17;;;;;;;1.70;1.00;;;;;;;21.19;40.34;99741.95;117370;1181;22177;-57
2022/05/23 08:46:50;;;;;;;3.10;1.30;;;;;;;21.38;40.55;99741.75;117303;1185;21931;-56
2022/05/23 08:49:27;;;;;;;3.30;1.40;;;;;;;21.70;40.82;99733.52;118503;1184;21954;-56
2022/05/23 08:52:07;;;;;;;2.80;1.00;;;;;;;22.15;40.85;99727.55;117377;1184;22936;-52
2022/05/23 08:55:02;;;;;;;1.90;0.80;;;;;;;22.52;40.55;99723.66;117094;1188;21855;-51
2022/05/23 08:57:37;;;;;;;2.80;1.20;;;;;;;22.65;40.09;99724.00;118521;1186;23307;-51
2022/05/23 09:00:16;;;;;;;2.30;1.10;;;;;;;22.72;40.02;99726.19;117406;1185;23437;-51
2022/05/23 09:02:52;;;;;;;1.50;0.70;;;;;;;22.82;39.83;99724.21;117311;1185;21848;-51
2022/05/23 09:05:43;;;;;;;1.60;0.80;;;;;;;22.82;39.51;99726.32;117132;1186;21893;-52
2022/05/23 09:08:37;;;;;;;3.70;1.10;;;;;;;22.69;39.42;99724.98;117281;1185;21857;-52
2022/05/23 09:11:10;;;;;;;2.10;0.90;;;;;;;22.64;39.48;99726.52;117316;1186;21849;-53
2022/05/23 09:13:48;;;;;;;1.80;0.80;;;;;;;22.64;39.36;99724.40;117467;1185;21940;-57
2022/05/23 09:16:25;;;;;;;3.20;1.20;;;;;;;22.60;39.30;99727.89;117670;1184;23466;-56
2022/05/23 09:19:02;;;;;;;7.50;1.40;;;;;;;22.55;39.28;99728.80;117178;1185;21849;-51
2022/05/23 09:24:18;;;;;;;2.90;1.60;;;;;;;22.42;39.05;99728.83;118530;1185;21850;-50
2022/05/23 09:26:47;;;;;;;3.00;1.50;;;;;;;22.37;39.08;99730.99;117330;1186;21859;-55
2022/05/23 09:29:15;;;;;;;4.40;1.60;;;;;;;22.35;39.12;99732.00;119619;1184;21820;-56
2022/05/23 09:32:00;;;;;;;10.70;6.70;;;;;;;22.29;38.91;99734.92;118831;1183;23938;-56
2022/05/23 09:34:31;;;;;;;5.10;1.90;;;;;;;22.11;38.72;99734.81;118029;1186;23633;-56
2022/05/23 09:37:02;;;;;;;6.10;1.80;;;;;;;21.93;38.77;99734.41;117427;1185;23535;-56
2022/05/23 09:39:34;;;;;;;2.90;1.30;;;;;;;21.86;38.86;99735.12;117595;1185;21866;-57
2022/05/23 09:47:46;;;;;;;2.60;1.10;;;;;;;21.64;38.77;99740.39;117375;1185;24162;-51
2022/05/23 09:50:27;;;;;;;5.00;1.60;;;;;;;21.64;38.82;99739.33;117257;1185;23547;-57
2022/05/23 09:53:34;;;;;;;2.40;1.20;;;;;;;21.60;38.79;99739.58;117228;1185;22651;-56
2022/05/23 09:56:35;;;;;;;4.00;1.40;;;;;;;21.61;38.84;99740.94;117356;1185;24162;-50
2022/05/23 09:59:29;;;;;;;2.20;1.00;;;;;;;21.76;38.90;99741.69;117285;1187;21848;-50
2022/05/23 10:02:29;;;;;;;2.50;1.00;;;;;;;21.87;38.76;99744.84;117429;1185;23631;-56
2022/05/23 10:04:57;;;;;;;1.60;0.80;;;;;;;21.88;38.76;99749.48;117532;1184;23537;-50
2022/05/23 10:07:35;;;;;;;2.70;0.90;;;;;;;21.86;38.75;99747.65;117465;1186;23567;-49
2022/05/23 10:10:30;;;;;;;2.90;1.30;;;;;;;21.79;38.49;99750.39;117448;1185;23560;-50
2022/05/23 10:13:20;;;;;;;6.90;4.60;;;;;;;21.69;38.49;99749.30;117445;1185;22231;-56
2022/05/23 10:16:08;;;;;;;2.10;1.00;;;;;;;21.63;38.43;99747.38;117533;1185;24291;-50
2022/05/23 10:18:51;;;;;;;2.80;1.10;;;;;;;21.68;38.80;99746.49;117486;1185;24149;-50
2022/05/23 10:21:26;;;;;;;1.90;0.90;;;;;;;21.80;38.88;99744.80;117515;1185;23039;-56
2022/05/23 10:23:59;;;;;;;2.30;1.10;;;;;;;21.87;38.75;99741.27;117523;1174;23643;-56
2022/05/23 10:26:29;;;;;;;3.80;0.90;;;;;;;21.95;38.80;99745.71;117441;1184;23602;-56
2022/05/23 10:29:03;;;;;;;2.20;1.10;;;;;;;22.07;38.92;99748.27;117350;1185;21856;-50
2022/05/23 10:31:38;;;;;;;2.60;1.60;;;;;;;22.18;38.85;99745.39;117380;1185;21853;-51
2022/05/23 10:34:16;;;;;;;1.90;0.70;;;;;;;22.25;38.78;99741.15;117327;1185;22938;-56
2022/05/23 10:36:46;;;;;;;1.90;1.30;;;;;;;22.37;38.83;99739.23;117381;1186;23469;-51
2022/05/23 10:42:18;;;;;;;1.80;0.70;;;;;;;22.70;38.63;99730.98;117303;1186;23595;-52
2022/05/23 10:44:55;;;;;;;2.00;0.70;;;;;;;22.69;38.45;99727.29;117258;1181;23446;-52
2022/05/23 10:47:45;;;;;;;3.60;1.20;;;;;;;22.56;38.26;99725.55;117454;1185;21885;-57
2022/05/23 10:50:24;;;;;;;1.70;0.80;;;;;;;22.34;38.06;99728.52;117527;1185;23541;-57
2022/05/23 10:53:01;;;;;;;1.80;0.80;;;;;;;22.20;38.14;99728.61;117421;1180;21852;-51
2022/05/23 10:55:40;;;;;;;2.00;0.80;;;;;;;22.12;38.32;99729.70;117170;1186;25399;-55
2022/05/23 10:58:11;;;;;;;3.50;0.80;;;;;;;22.16;38.53;99727.30;117252;1186;23481;-57
2022/05/23 11:01:17;;;;;;;1.70;0.60;;;;;;;22.31;38.68;99723.57;117248;1185;23470;-55
2022/05/23 11:03:55;;;;;;;2.40;0.80;;;;;;;22.62;38.78;99721.34;116997;1186;21853;-51
2022/05/23 11:06:28;;;;;;;2.10;0.50;;;;;;;23.00;38.72;99718.41;117190;1187;22946;-57
2022/05/23 11:09:26;;;;;;;0.70;0.40;;;;;;;23.39;38.72;99718.15;117156;1187;22726;-51
2022/05/23 11:12:14;;;;;;;1.00;0.80;;;;;;;23.69;38.55;99715.67;117122;1182;23570;-51
2022/05/23 11:14:56;;;;;;;1.00;0.40;;;;;;;23.85;38.51;99721.09;117261;1186;21856;-56
2022/05/23 11:17:45;;;;;;;3.30;1.60;;;;;;;23.82;38.18;99720.45;117153;1182;24206;-56
2022/05/23 11:20:20;;;;;;;2.70;0.50;;;;;;;23.63;37.90;99723.52;117279;1186;21854;-51
2022/05/23 11:23:01;;;;;;;0.80;0.50;;;;;;;23.41;37.76;99727.52;117190;1182;23541;-56
2022/05/23 11:25:34;;;;;;;0.60;0.50;;;;;;;23.28;37.81;99724.23;117398;1186;23439;-56
2022/05/23 11:34:06;;;;;;;5.80;0.60;;;;;;;23.59;38.03;99717.40;117213;1186;24207;-56
2022/05/23 11:39:54;;;;;;;1.00;0.60;;;;;;;23.38;37.31;99725.20;117090;1186;23469;-56
2022/05/23 11:42:49;;;;;;;3.40;0.80;;;;;;;22.96;37.04;99734.97;117357;1185;23461;-52
2022/05/23 11:48:26;;;;;;;1.10;0.40;;;;;;;21.97;36.89;99738.61;117145;1186;23472;-56
2022/05/23 11:50:53;;;;;;;1.10;0.40;;;;;;;21.57;36.88;99741.73;117164;1183;22326;-50
2022/05/23 11:53:29;;;;;;;3.10;0.60;;;;;;;21.23;36.88;99746.70;117179;1184;21841;-50
2022/05/23 11:55:56;;;;;;;2.60;1.00;;;;;;;20.99;37.10;99745.04;117341;1182;24132;-56
2022/05/23 11:58:41;;;;;;;5.40;1.70;;;;;;;20.85;37.25;99745.25;117107;1187;21872;-52
2022/05/23 12:01:11;;;;;;;4.80;1.10;;;;;;;20.74;37.23;99746.63;117114;1182;22791;-56
2022/05/23 12:04:01;;;;;;;1.80;0.80;;;;;;;20.64;37.35;99747.09;117246;1186;21852;-55
2022/05/23 12:06:28;;;;;;;1.10;0.50;;;;;;;20.63;37.54;99749.65;116999;1187;21969;-56
2022/05/23 12:09:06;;;;;;;2.20;0.50;;;;;;;20.69;37.63;99752.14;117178;1186;23300;-50
2022/05/23 12:11:38;;;;;;;1.50;0.60;;;;;;;20.73;37.67;99754.84;117377;1182;23583;-51
2022/05/23 12:14:16;;;;;;;2.80;0.50;;;;;;;20.82;37.86;99756.29;117310;1186;23436;-50
2022/05/23 12:16:49;;;;;;;2.70;0.50;;;;;;;20.97;38.03;99750.84;117252;1186;23570;-55
2022/05/23 12:19:41;;;;;;;3.30;0.50;;;;;;;21.15;38.09;99754.88;117293;1186;24188;-55
2022/05/23 12:22:22;;;;;;;3.20;0.90;;;;;;;21.26;38.09;99752.02;116956;1184;23542;-50
2022/05/23 12:25:07;;;;;;;2.20;0.50;;;;;;;21.32;38.09;99751.80;117381;1185;21871;-51
2022/05/23 12:27:39;;;;;;;0.90;0.40;;;;;;;21.41;38.15;99749.55;117297;1188;22915;-56
2022/05/23 12:30:22;;;;;;;2.40;0.60;;;;;;;21.58;38.42;99750.92;117363;1186;23457;-51
2022/05/23 12:32:51;;;;;;;1.50;0.40;;;;;;;21.83;38.50;99748.35;117294;1186;22903;-52
2022/05/23 12:35:20;;;;;;;1.80;0.40;;;;;;;22.09;38.56;99749.57;117237;1185;21849;-56
2022/05/23 12:38:01;;;;;;;0.70;0.30;;;;;;;22.42;38.68;99746.73;117370;1182;23544;-52
2022/05/23 12:40:39;;;;;;;4.90;0.40;;;;;;;22.83;38.72;99749.53;117347;1183;24163;-51
2022/05/23 12:43:16;;;;;;;1.20;0.30;;;;;;;23.10;38.53;99745.04;117391;1185;22159;-55
2022/05/23 12:46:05;;;;;;;1.60;0.50;;;;;;;23.21;38.23;99746.02;117315;1181;21861;-51
2022/05/23 12:49:11;;;;;;;2.20;0.60;;;;;;;23.14;38.00;99742.02;117270;1188;21860;-55
2022/05/23 12:51:47;;;;;;;1.90;0.40;;;;;;;23.08;37.83;99745.02;117325;1183;23446;-55
2022/05/23 12:54:26;;;;;;;0.90;0.50;;;;;;;22.99;37.79;99750.69;117343;1186;21904;-52
2022/05/23 12:57:13;;;;;;;0.70;0.20;;;;;;;22.81;37.58;99755.02;117362;1182;23589;-56